Time;durP1;ratioP1;P1;durP2;ratioP2;P2;SDS_P1;SDS_P2;PMS_P1;PMS_P2;Temp;Humidity;BMP_temperature;BMP_pressure;BME280_temperature;BME280_humidity;BME280_pressure;Samples;Min_cycle;Max_cycle;Signal;HPM_P1;HPM_P2
2023/03/13 00:00:50;;;;;;;0.52;0.52;;;;;;;2.43;100.00;100176.59;6156409;23;20060;-88
2023/03/13 00:03:16;;;;;;;2.17;0.82;;;;;;;2.39;100.00;100175.78;6158656;23;20016;-88
2023/03/13 00:05:41;;;;;;;1.58;1.27;;;;;;;2.25;100.00;100142.84;6161130;23;20016;-88
2023/03/13 00:08:07;;;;;;;0.22;0.22;;;;;;;2.33;100.00;100167.16;6186676;23;20044;-88
2023/03/13 00:10:36;;;;;;;0.55;0.55;;;;;;;2.21;100.00;100158.44;6190703;23;20012;-89
2023/03/13 00:13:01;;;;;;;0.00;0.00;;;;;;;2.13;100.00;100140.38;6194513;23;20406;-88
2023/03/13 00:15:26;;;;;;;0.20;0.20;;;;;;;2.12;100.00;100139.59;6186125;23;20031;-88
2023/03/13 00:17:52;;;;;;;0.28;0.28;;;;;;;2.23;100.00;100164.31;6211615;23;20017;-88
2023/03/13 00:20:18;;;;;;;0.63;0.63;;;;;;;2.30;100.00;100175.34;6160905;23;20434;-88
2023/03/13 00:22:43;;;;;;;1.10;0.88;;;;;;;2.25;100.00;100149.09;6160871;23;20095;-89
2023/03/13 00:25:09;;;;;;;0.63;0.63;;;;;;;2.20;100.00;100146.69;6185807;23;20035;-88
2023/03/13 00:27:34;;;;;;;0.40;0.40;;;;;;;2.11;100.00;100126.28;6135701;23;20009;-88
2023/03/13 00:30:00;;;;;;;0.30;0.30;;;;;;;2.32;100.00;100167.53;6186016;23;20020;-88
2023/03/13 00:32:25;;;;;;;0.30;0.30;;;;;;;2.19;100.00;100145.13;6184801;23;20438;-88
2023/03/13 00:34:51;;;;;;;0.88;0.88;;;;;;;2.30;100.00;100156.97;6185211;23;20012;-88
2023/03/13 00:37:16;;;;;;;0.20;0.20;;;;;;;2.37;100.00;100172.66;6136052;23;20373;-88
2023/03/13 00:39:42;;;;;;;0.73;0.73;;;;;;;2.24;100.00;100149.47;6160784;23;20016;-88
2023/03/13 00:42:07;;;;;;;2.22;1.05;;;;;;;2.19;100.00;100141.59;6159857;23;20008;-88
2023/03/13 00:44:33;;;;;;;0.13;0.10;;;;;;;2.23;100.00;100156.09;6161475;23;20104;-88
2023/03/13 00:46:58;;;;;;;1.65;1.30;;;;;;;1.92;100.00;100112.81;6135919;23;20043;-88
2023/03/13 00:49:24;;;;;;;1.35;0.70;;;;;;;2.23;100.00;100167.03;6161100;23;20036;-88
2023/03/13 00:51:50;;;;;;;0.22;0.22;;;;;;;2.23;100.00;100161.56;6185971;23;20016;-88
2023/03/13 00:54:16;;;;;;;1.10;1.10;;;;;;;1.98;100.00;100116.81;6141926;23;20099;-89
2023/03/13 00:56:42;;;;;;;0.52;0.52;;;;;;;2.24;100.00;100149.47;6165228;23;20047;-89
2023/03/13 00:59:07;;;;;;;0.22;0.22;;;;;;;2.20;100.00;100146.69;6152608;23;19997;-88
2023/03/13 01:01:34;;;;;;;1.27;0.73;;;;;;;1.99;100.00;100104.69;6194263;23;20570;-88
2023/03/13 01:04:08;;;;;;;0.45;0.43;;;;;;;2.22;100.00;100143.59;6177009;23;20024;-88
2023/03/13 01:06:37;;;;;;;0.00;0.00;;;;;;;2.18;100.00;100142.78;6135860;23;20017;-88
2023/03/13 01:09:04;;;;;;;1.05;0.95;;;;;;;2.08;100.00;100114.16;6135201;23;20016;-89
2023/03/13 01:11:33;;;;;;;0.20;0.20;;;;;;;2.16;100.00;100134.94;6161061;23;20013;-88
2023/03/13 01:14:00;;;;;;;0.28;0.28;;;;;;;2.16;100.00;100134.16;6159900;23;20016;-89
2023/03/13 01:16:27;;;;;;;0.73;0.73;;;;;;;2.14;100.00;100126.34;6159546;23;20131;-88
2023/03/13 01:18:55;;;;;;;0.40;0.40;;;;;;;2.13;100.00;100135.69;6184055;23;20059;-88
2023/03/13 01:21:22;;;;;;;0.32;0.32;;;;;;;2.05;100.00;100111.38;6185109;23;20030;-89
2023/03/13 01:23:50;;;;;;;0.10;0.10;;;;;;;2.09;100.00;100123.94;6159873;23;20035;-88
2023/03/13 01:26:16;;;;;;;0.38;0.38;;;;;;;2.07;100.00;100126.25;6135263;23;20115;-88
2023/03/13 01:28:42;;;;;;;0.13;0.13;;;;;;;2.09;100.00;100112.22;6159083;23;20447;-88
2023/03/13 01:31:20;;;;;;;0.88;0.82;;;;;;;2.07;100.00;100117.25;6159864;23;20048;-88
2023/03/13 01:33:47;;;;;;;2.10;1.65;;;;;;;2.05;100.00;100114.13;6135185;23;20020;-88
2023/03/13 01:36:15;;;;;;;0.40;0.40;;;;;;;2.05;100.00;100106.72;6185216;23;20032;-88
2023/03/13 01:38:40;;;;;;;0.00;0.00;;;;;;;2.01;100.00;100088.69;6135244;23;20021;-89
2023/03/13 01:41:07;;;;;;;0.98;0.85;;;;;;;2.04;100.00;100104.34;6159451;23;20019;-88
2023/03/13 01:43:34;;;;;;;0.50;0.50;;;;;;;1.80;100.00;100078.34;6156648;23;20368;-89
2023/03/13 01:46:06;;;;;;;0.40;0.35;;;;;;;2.01;100.00;100099.63;6157333;23;20390;-88
2023/03/13 01:49:11;;;;;;;0.20;0.20;;;;;;;1.84;100.00;100079.94;6209449;23;20163;-87
2023/03/13 01:52:12;;;;;;;0.22;0.22;;;;;;;1.90;100.00;100098.75;6140204;23;20399;-90
2023/03/13 01:54:56;;;;;;;0.05;0.05;;;;;;;1.93;100.00;100098.78;6159977;23;20020;-89
2023/03/13 01:57:28;;;;;;;0.47;0.47;;;;;;;1.88;100.00;100083.50;6132255;23;20023;-88
2023/03/13 02:00:15;;;;;;;0.75;0.57;;;;;;;1.87;100.00;100090.13;6183251;23;20020;-88
2023/03/13 02:02:47;;;;;;;0.30;0.30;;;;;;;1.85;100.00;100076.06;6158632;23;20198;-89
2023/03/13 02:05:14;;;;;;;0.75;0.75;;;;;;;1.82;100.00;100085.00;6158530;23;20017;-88
2023/03/13 02:07:42;;;;;;;3.40;0.70;;;;;;;1.77;100.00;100084.56;6183390;23;20075;-88
2023/03/13 02:10:09;;;;;;;0.00;0.00;;;;;;;1.70;100.00;100073.56;6159804;23;20026;-88
2023/03/13 02:12:36;;;;;;;0.35;0.35;;;;;;;1.77;100.00;100090.03;6133918;23;20063;-88
2023/03/13 02:15:09;;;;;;;4.30;0.75;;;;;;;1.68;100.00;100071.19;6157627;23;20027;-87
2023/03/13 02:17:35;;;;;;;0.47;0.47;;;;;;;1.81;100.00;100085.38;6132482;23;20403;-88
2023/03/13 02:20:02;;;;;;;0.85;0.85;;;;;;;1.78;100.00;100077.94;6133567;23;20248;-88
2023/03/13 02:22:34;;;;;;;0.82;0.63;;;;;;;1.80;100.00;100075.59;6157943;23;20509;-88
2023/03/13 02:25:05;;;;;;;0.10;0.10;;;;;;;1.81;100.00;100086.19;6184109;23;20050;-88
2023/03/13 02:27:31;;;;;;;0.35;0.32;;;;;;;1.78;100.00;100080.69;6179985;23;20441;-88
2023/03/13 02:29:57;;;;;;;0.10;0.10;;;;;;;1.61;100.00;100062.94;6157392;23;20012;-88
2023/03/13 02:32:23;;;;;;;0.22;0.22;;;;;;;1.67;100.00;100068.84;6134416;23;20071;-88
2023/03/13 02:34:51;;;;;;;0.85;0.63;;;;;;;1.63;100.00;100079.75;6159424;23;20457;-88
2023/03/13 02:37:18;;;;;;;0.95;0.93;;;;;;;1.60;100.00;100064.09;6159604;23;20004;-88
2023/03/13 02:39:47;;;;;;;0.85;0.85;;;;;;;1.63;100.00;100074.28;6159884;23;20012;-88
2023/03/13 02:42:14;;;;;;;0.45;0.45;;;;;;;1.56;100.00;100074.22;6133956;23;20344;-88
2023/03/13 02:44:41;;;;;;;0.00;0.00;;;;;;;1.52;100.00;100062.44;6134980;23;20090;-88
2023/03/13 02:47:08;;;;;;;0.77;0.77;;;;;;;1.48;100.00;100061.63;6159989;23;20056;-88
2023/03/13 02:49:35;;;;;;;1.10;0.82;;;;;;;1.50;100.00;100064.75;6136738;23;20401;-93
2023/03/13 02:52:26;;;;;;;0.25;0.20;;;;;;;1.52;100.00;100067.13;6161166;23;20042;-94
2023/03/13 02:54:59;;;;;;;0.10;0.10;;;;;;;1.36;100.00;100046.28;6161099;23;20016;-94
2023/03/13 02:57:25;;;;;;;0.22;0.22;;;;;;;1.52;100.00;100062.44;6159651;23;20391;-92
2023/03/13 02:59:51;;;;;;;1.27;1.20;;;;;;;1.52;100.00;100067.91;6160968;23;20012;-93
2023/03/13 03:02:16;;;;;;;0.00;0.00;;;;;;;1.51;100.00;100071.81;6160447;23;20025;-93
2023/03/13 03:04:42;;;;;;;1.45;1.27;;;;;;;1.46;100.00;100055.72;6130589;23;20029;-93
2023/03/13 03:07:09;;;;;;;0.00;0.00;;;;;;;1.57;100.00;100075.00;6156369;23;20443;-92
2023/03/13 03:09:35;;;;;;;0.70;0.63;;;;;;;1.57;100.00;100056.66;6156242;23;20029;-93
2023/03/13 03:12:06;;;;;;;0.20;0.20;;;;;;;1.47;100.00;100062.78;6155212;23;20009;-93
2023/03/13 03:14:31;;;;;;;0.52;0.52;;;;;;;1.42;100.00;100052.97;6131694;23;20025;-93
2023/03/13 03:16:57;;;;;;;0.45;0.45;;;;;;;1.37;100.00;100058.00;6132260;23;20016;-93
2023/03/13 03:19:24;;;;;;;0.90;0.85;;;;;;;1.43;100.00;100067.44;6131875;23;20856;-92
2023/03/13 03:21:49;;;;;;;0.20;0.20;;;;;;;1.38;100.00;100062.28;6136463;23;20089;-93
2023/03/13 03:24:17;;;;;;;0.20;0.20;;;;;;;1.28;100.00;100050.09;6166316;23;20076;-92
2023/03/13 03:26:43;;;;;;;0.00;0.00;;;;;;;1.19;100.00;100032.44;6135938;23;20020;-91
2023/03/13 03:29:16;;;;;;;0.17;0.17;;;;;;;1.42;100.00;100079.50;6183858;23;20470;-91
2023/03/13 03:31:42;;;;;;;0.00;0.00;;;;;;;1.32;100.00;100066.53;6134667;23;20363;-93
2023/03/13 03:34:08;;;;;;;0.43;0.43;;;;;;;1.30;100.00;100049.72;6157324;23;20017;-93
2023/03/13 03:36:34;;;;;;;1.17;1.10;;;;;;;1.34;100.00;100075.13;6156973;23;20029;-91
2023/03/13 03:39:00;;;;;;;0.08;0.08;;;;;;;1.32;100.00;100083.72;6132727;23;20013;-92
2023/03/13 03:41:26;;;;;;;1.58;1.08;;;;;;;1.32;100.00;100070.06;6156532;23;20019;-91
2023/03/13 03:43:53;;;;;;;0.10;0.10;;;;;;;1.25;100.00;100056.31;6132837;23;20028;-92
2023/03/13 03:46:23;;;;;;;1.55;0.65;;;;;;;1.18;100.00;100049.97;6110235;23;20260;-91
2023/03/13 03:48:49;;;;;;;0.08;0.08;;;;;;;1.26;100.00;100065.28;6157190;23;20017;-93
2023/03/13 03:51:15;;;;;;;0.10;0.10;;;;;;;1.23;100.00;100060.56;6156525;23;20005;-94
2023/03/13 03:53:42;;;;;;;0.20;0.20;;;;;;;1.22;100.00;100064.47;6133629;23;20443;-92
2023/03/13 03:56:08;;;;;;;0.20;0.20;;;;;;;1.29;100.00;100081.75;6132563;23;20009;-92
2023/03/13 03:58:39;;;;;;;0.80;0.80;;;;;;;1.09;100.00;100044.03;6134467;23;20505;-93
2023/03/13 04:01:27;;;;;;;1.48;0.65;;;;;;;0.98;100.00;100029.44;6150037;23;20028;-91
2023/03/13 04:03:52;;;;;;;0.40;0.40;;;;;;;1.29;100.00;100081.75;6122899;23;20020;-94
2023/03/13 04:06:18;;;;;;;0.00;0.00;;;;;;;1.13;100.00;100044.88;6144843;23;19997;-93
2023/03/13 04:08:45;;;;;;;0.98;0.30;;;;;;;1.20;100.00;100053.13;6186407;23;20064;-93
2023/03/13 04:11:14;;;;;;;0.63;0.63;;;;;;;1.24;100.00;100062.16;6140782;23;20497;-91
2023/03/13 04:13:45;;;;;;;0.10;0.10;;;;;;;1.19;100.00;100070.66;6108985;23;20060;-92
2023/03/13 04:16:11;;;;;;;1.77;1.65;;;;;;;1.14;100.00;100068.25;6106275;23;20072;-91
2023/03/13 04:18:38;;;;;;;1.45;1.35;;;;;;;1.19;100.00;100076.13;6106414;23;20039;-92
2023/03/13 04:21:05;;;;;;;0.10;0.10;;;;;;;1.18;100.00;100080.03;6130263;23;20497;-91
2023/03/13 04:23:37;;;;;;;0.28;0.28;;;;;;;0.99;100.00;100050.16;6109778;23;20005;-92
2023/03/13 04:26:03;;;;;;;0.00;0.00;;;;;;;1.08;100.00;100069.78;6130878;23;20452;-92
2023/03/13 04:28:29;;;;;;;0.25;0.25;;;;;;;1.13;100.00;100077.66;6131455;23;20344;-96
2023/03/13 04:30:57;;;;;;;0.00;0.00;;;;;;;0.97;100.00;100052.47;6107392;23;20009;-91
2023/03/13 04:33:38;;;;;;;0.03;0.03;;;;;;;0.97;100.00;100057.94;6155061;23;20013;-92
2023/03/13 04:36:24;;;;;;;1.27;0.88;;;;;;;1.06;100.00;100074.81;6135967;23;20096;-91
2023/03/13 04:39:22;;;;;;;0.13;0.13;;;;;;;1.08;100.00;100091.63;6119138;23;20017;-93
2023/03/13 04:42:06;;;;;;;4.00;1.42;;;;;;;1.16;100.00;100104.22;6159912;23;20741;-94
2023/03/13 04:45:10;;;;;;;0.00;0.00;;;;;;;1.09;100.00;100098.66;6074152;23;20033;-93
2023/03/13 04:47:55;;;;;;;0.13;0.13;;;;;;;1.12;100.00;100104.19;6135374;23;20059;-94
2023/03/13 04:50:23;;;;;;;0.35;0.35;;;;;;;1.06;100.00;100091.97;6158018;23;20048;-94
2023/03/13 04:53:03;;;;;;;0.88;0.88;;;;;;;1.17;100.00;100094.88;6135433;23;20171;-94
2023/03/13 04:55:35;;;;;;;0.40;0.40;;;;;;;1.18;100.00;100090.94;6133370;23;20017;-94
2023/03/13 04:58:33;;;;;;;1.52;0.82;;;;;;;1.18;100.00;100091.75;6156026;23;20093;-93
2023/03/13 05:01:17;;;;;;;;;;;;;;;1.19;100.00;100087.84;6183063;23;20027;-91
2023/03/13 05:04:10;;;;;;;0.65;0.65;;;;;;;1.21;100.00;100084.75;6150781;23;19955;-93
2023/03/13 05:06:54;;;;;;;0.32;0.32;;;;;;;1.14;100.00;100069.06;6190448;23;20023;-96
2023/03/13 05:09:35;;;;;;;0.65;0.65;;;;;;;1.23;100.00;100076.97;6163709;23;20013;-93
2023/03/13 05:12:19;;;;;;;0.10;0.10;;;;;;;1.24;100.00;100082.06;6188525;23;20138;-94
2023/03/13 05:15:11;;;;;;;1.63;0.57;;;;;;;1.29;100.00;100076.28;6168440;23;20197;-94
2023/03/13 05:18:11;;;;;;;1.02;1.02;;;;;;;1.17;100.00;100062.09;6166262;23;20040;-92
2023/03/13 05:20:57;;;;;;;0.00;0.00;;;;;;;1.23;100.00;100063.31;6189784;23;20019;-92
2023/03/13 05:23:34;;;;;;;1.27;1.02;;;;;;;1.34;100.00;100080.59;6186456;23;20091;-94
2023/03/13 05:26:05;;;;;;;1.90;1.48;;;;;;;1.33;100.00;100062.66;6186634;23;20055;-95
2023/03/13 05:28:30;;;;;;;0.00;0.00;;;;;;;1.47;100.00;100087.38;6159888;23;20024;-93
2023/03/13 05:31:14;;;;;;;0.65;0.65;;;;;;;1.38;100.00;100068.53;6210221;23;20015;-94
2023/03/13 05:34:03;;;;;;;0.10;0.10;;;;;;;1.53;100.00;100091.38;6210231;23;20013;-93
2023/03/13 05:36:42;;;;;;;0.20;0.20;;;;;;;1.49;100.00;100081.56;6163572;23;20017;-93
2023/03/13 05:39:13;;;;;;;0.30;0.30;;;;;;;1.58;100.00;100092.97;6196469;23;20017;-94
2023/03/13 05:41:41;;;;;;;0.10;0.10;;;;;;;1.58;100.00;100077.34;6212259;23;20024;-92
2023/03/13 05:44:36;;;;;;;0.20;0.20;;;;;;;1.66;100.00;100092.66;6186086;23;20013;-93
2023/03/13 05:47:32;;;;;;;0.10;0.10;;;;;;;1.77;100.00;100104.50;6167228;23;20016;-92
2023/03/13 05:50:20;;;;;;;0.43;0.43;;;;;;;1.76;100.00;100091.97;6139296;23;20020;-92
2023/03/13 05:53:15;;;;;;;0.20;0.20;;;;;;;1.85;100.00;100097.94;6171227;23;20384;-91
2023/03/13 05:55:59;;;;;;;;;;;;;;;1.97;100.00;100104.28;6187233;23;20067;-93
2023/03/13 05:58:36;;;;;;;0.10;0.10;;;;;;;1.93;100.00;100076.09;6220868;23;20278;-88
2023/03/13 06:01:09;;;;;;;0.30;0.30;;;;;;;2.05;100.00;100089.50;6183082;23;20095;-89
2023/03/13 06:03:40;;;;;;;0.95;0.77;;;;;;;2.01;100.00;100088.69;6182404;23;20028;-88
2023/03/13 06:06:08;;;;;;;1.45;0.85;;;;;;;1.96;100.00;100076.13;6135321;23;20017;-88
2023/03/13 06:08:42;;;;;;;1.20;0.95;;;;;;;2.11;100.00;100093.44;6159307;23;20012;-88
2023/03/13 06:11:08;;;;;;;1.63;1.35;;;;;;;2.07;100.00;100104.38;6183525;23;20074;-88
2023/03/13 06:13:34;;;;;;;1.08;1.08;;;;;;;2.13;100.00;100091.13;6159706;23;20050;-88
2023/03/13 06:16:07;;;;;;;0.00;0.00;;;;;;;2.09;100.00;100071.16;6159784;23;20044;-87
2023/03/13 06:18:43;;;;;;;3.22;0.98;;;;;;;2.26;100.00;100081.47;6160344;23;20020;-88
2023/03/13 06:21:09;;;;;;;0.20;0.20;;;;;;;2.40;100.00;100083.50;6132854;23;20016;-88
2023/03/13 06:23:35;;;;;;;0.30;0.30;;;;;;;2.46;100.00;100088.25;6133096;23;20493;-90
2023/03/13 06:26:01;;;;;;;0.43;0.43;;;;;;;2.64;100.00;100083.66;6160022;23;20013;-89
2023/03/13 06:28:26;;;;;;;1.00;1.00;;;;;;;2.73;100.00;100062.19;6183022;23;20008;-90
2023/03/13 06:30:52;;;;;;;0.40;0.40;;;;;;;3.00;100.00;100070.13;6157471;23;20017;-89
2023/03/13 06:33:17;;;;;;;0.40;0.40;;;;;;;3.25;100.00;100073.75;6156255;23;20040;-90
2023/03/13 06:35:43;;;;;;;0.65;0.65;;;;;;;3.40;97.26;100069.88;6134410;23;20438;-88
2023/03/13 06:38:09;;;;;;;0.63;0.63;;;;;;;3.53;95.13;100051.91;6133499;23;20012;-89
2023/03/13 06:40:35;;;;;;;0.00;0.00;;;;;;;3.50;92.78;100025.25;6158806;23;20063;-90
2023/03/13 06:43:00;;;;;;;0.47;0.47;;;;;;;3.90;90.80;100054.31;6158304;23;20435;-90
2023/03/13 06:45:26;;;;;;;1.10;1.00;;;;;;;4.13;88.98;100062.13;6159155;23;20026;-90
2023/03/13 06:47:52;;;;;;;1.20;1.15;;;;;;;4.21;88.34;100048.00;6134758;23;20434;-90
2023/03/13 06:50:17;;;;;;;0.70;0.70;;;;;;;4.30;88.59;100033.09;6181648;23;20012;-90
2023/03/13 06:52:43;;;;;;;0.68;0.68;;;;;;;4.34;87.86;100012.69;6157944;23;20516;-89
2023/03/13 06:55:09;;;;;;;2.55;1.40;;;;;;;4.45;83.88;100015.44;6133251;23;20016;-89
2023/03/13 06:57:35;;;;;;;0.57;0.57;;;;;;;4.90;84.90;100055.72;6134123;23;20129;-89
2023/03/13 07:00:00;;;;;;;0.75;0.75;;;;;;;4.96;82.54;100034.88;6159075;23;20001;-89
2023/03/13 07:02:26;;;;;;;0.43;0.43;;;;;;;5.25;79.71;100049.28;6158478;23;20024;-89
2023/03/13 07:04:51;;;;;;;1.33;0.57;;;;;;;5.18;77.49;100010.81;6152666;23;20053;-89
2023/03/13 07:07:17;;;;;;;0.40;0.40;;;;;;;5.39;75.60;100038.19;6129482;23;20370;-88
2023/03/13 07:09:43;;;;;;;0.20;0.20;;;;;;;5.52;76.42;100041.28;6130167;23;20005;-89
2023/03/13 07:12:09;;;;;;;0.25;0.25;;;;;;;5.61;75.76;100036.91;6153220;23;20025;-89
2023/03/13 07:14:34;;;;;;;0.60;0.60;;;;;;;5.72;75.34;100000.25;6134556;23;20015;-90
2023/03/13 07:17:00;;;;;;;0.47;0.47;;;;;;;5.66;75.04;99982.63;6143497;23;20012;-90
2023/03/13 07:19:26;;;;;;;0.90;0.85;;;;;;;5.95;71.76;99994.97;6182057;23;20013;-89
2023/03/13 07:21:52;;;;;;;0.80;0.68;;;;;;;6.07;71.36;100000.75;6130188;23;20017;-89
2023/03/13 07:24:18;;;;;;;0.03;0.03;;;;;;;6.43;71.91;100027.97;6104725;23;20041;-89
2023/03/13 07:26:43;;;;;;;0.10;0.10;;;;;;;6.49;71.56;100021.59;6130470;23;20084;-89
2023/03/13 07:29:09;;;;;;;0.50;0.50;;;;;;;6.76;69.71;100029.97;6128151;23;20153;-90
2023/03/13 07:31:35;;;;;;;1.23;1.13;;;;;;;6.78;69.33;99993.72;6129655;23;20443;-91
2023/03/13 07:34:00;;;;;;;1.65;1.10;;;;;;;7.10;67.94;100020.91;6104799;23;20020;-91
2023/03/13 07:36:26;;;;;;;2.92;0.52;;;;;;;6.79;64.88;99993.31;6128869;23;20128;-90
2023/03/13 07:38:52;;;;;;;3.20;1.35;;;;;;;6.78;67.61;100015.78;6129287;23;20443;-89
2023/03/13 07:41:18;;;;;;;0.75;0.75;;;;;;;6.91;67.15;100014.06;6153173;23;20020;-89
2023/03/13 07:43:45;;;;;;;0.13;0.13;;;;;;;7.03;65.05;100027.28;6128317;23;20084;-90
2023/03/13 07:46:13;;;;;;;1.20;0.85;;;;;;;7.08;63.62;100029.56;6128641;23;20019;-89
2023/03/13 07:48:40;;;;;;;0.85;0.85;;;;;;;6.95;62.22;99988.00;6105697;23;20009;-91
2023/03/13 07:51:10;;;;;;;0.68;0.65;;;;;;;6.98;64.71;99998.19;6154230;23;20017;-90
2023/03/13 07:53:36;;;;;;;0.55;0.55;;;;;;;7.40;63.15;100013.38;6105025;23;20047;-89
2023/03/13 07:56:04;;;;;;;0.40;0.40;;;;;;;7.62;61.00;100007.53;6130098;23;20013;-90
2023/03/13 07:58:35;;;;;;;0.30;0.30;;;;;;;7.69;59.16;99982.59;6129119;23;20354;-90
2023/03/13 08:01:07;;;;;;;0.30;0.30;;;;;;;7.82;59.00;99947.66;6105655;23;20013;-90
2023/03/13 08:03:33;;;;;;;0.32;0.32;;;;;;;8.03;57.09;99972.16;6127964;23;20473;-93
2023/03/13 08:05:59;;;;;;;0.20;0.20;;;;;;;8.34;56.32;99998.47;6153787;23;20013;-92
2023/03/13 08:08:25;;;;;;;0.43;0.43;;;;;;;8.38;55.71;99990.88;6154013;23;20052;-93
2023/03/13 08:10:50;;;;;;;0.65;0.65;;;;;;;8.59;54.93;99972.34;6154399;23;20443;-93
2023/03/13 08:13:16;;;;;;;0.28;0.28;;;;;;;8.58;54.48;99974.31;6105265;23;20110;-93
2023/03/13 08:15:41;;;;;;;1.40;1.30;;;;;;;8.85;54.13;99988.03;6154161;23;20441;-92
2023/03/13 08:18:07;;;;;;;0.17;0.17;;;;;;;8.85;54.61;99939.00;6181785;23;20005;-93
2023/03/13 08:20:32;;;;;;;0.85;0.82;;;;;;;9.55;52.13;99973.81;6155845;23;20016;-92
2023/03/13 08:22:58;;;;;;;0.52;0.52;;;;;;;9.49;50.70;99936.78;6156494;23;20012;-92
2023/03/13 08:25:23;;;;;;;0.20;0.20;;;;;;;9.84;49.79;99958.06;6131671;23;20064;-94
2023/03/13 08:27:49;;;;;;;0.47;0.47;;;;;;;9.98;49.92;99930.00;6155567;23;20593;-92
2023/03/13 08:30:14;;;;;;;0.57;0.57;;;;;;;10.58;48.14;99960.91;6107068;23;20013;-92
2023/03/13 08:32:40;;;;;;;0.85;0.85;;;;;;;10.60;47.27;99952.91;6107027;23;20034;-92
2023/03/13 08:35:06;;;;;;;0.75;0.60;;;;;;;10.49;47.64;99941.34;6106426;23;20041;-92
2023/03/13 08:37:32;;;;;;;0.65;0.65;;;;;;;10.38;47.83;99935.31;6131218;23;20017;-93
2023/03/13 08:39:57;;;;;;;0.52;0.52;;;;;;;10.55;47.47;99953.47;6131716;23;20347;-92
2023/03/13 08:42:23;;;;;;;0.50;0.50;;;;;;;10.72;47.38;99944.63;6131152;23;20037;-92
2023/03/13 08:44:48;;;;;;;0.10;0.10;;;;;;;10.99;47.44;99935.91;6156049;23;20043;-92
2023/03/13 08:47:16;;;;;;;0.85;0.85;;;;;;;11.13;44.84;99941.03;6131302;23;20017;-92
2023/03/13 08:49:43;;;;;;;1.38;1.05;;;;;;;11.05;45.18;99923.03;6155816;23;20021;-93
2023/03/13 08:52:09;;;;;;;0.40;0.40;;;;;;;11.08;45.82;99893.63;6131312;23;20031;-93
2023/03/13 08:54:34;;;;;;;1.50;1.38;;;;;;;11.24;44.32;99922.03;6155955;23;20017;-93
2023/03/13 08:57:00;;;;;;;0.43;0.43;;;;;;;11.40;44.30;99928.72;6155659;23;20016;-91
2023/03/13 08:59:25;;;;;;;0.45;0.45;;;;;;;11.50;42.71;99886.69;6130743;23;20005;-92
2023/03/13 09:01:51;;;;;;;1.20;1.10;;;;;;;11.59;43.62;99888.81;6133901;23;20739;-92
2023/03/13 09:04:17;;;;;;;3.22;0.98;;;;;;;11.91;42.23;99921.09;6145438;23;20020;-94
2023/03/13 09:06:43;;;;;;;0.47;0.32;;;;;;;12.31;42.13;99915.72;6136414;23;20020;-93
2023/03/13 09:09:09;;;;;;;0.32;0.32;;;;;;;12.44;41.45;99886.63;6160313;23;20035;-92
2023/03/13 09:11:36;;;;;;;0.88;0.73;;;;;;;12.70;40.57;99917.09;6160320;23;20017;-93
2023/03/13 09:14:01;;;;;;;2.03;1.23;;;;;;;12.53;39.37;99880.38;6160626;23;20438;-92
2023/03/13 09:16:28;;;;;;;0.30;0.30;;;;;;;12.36;40.08;99907.59;6185322;23;20012;-92
2023/03/13 09:18:55;;;;;;;1.13;0.65;;;;;;;12.63;40.33;99927.25;6185167;23;20019;-93
2023/03/13 09:21:23;;;;;;;2.20;0.95;;;;;;;12.65;40.34;99892.66;6159843;23;20019;-93
2023/03/13 09:23:49;;;;;;;0.22;0.22;;;;;;;12.96;39.50;99918.47;6160469;23;20551;-92
2023/03/13 09:26:15;;;;;;;0.57;0.57;;;;;;;13.00;38.64;99872.56;6160473;23;20001;-92
2023/03/13 09:28:41;;;;;;;0.32;0.32;;;;;;;13.49;38.68;99917.19;6160146;23;20015;-95
2023/03/13 09:31:18;;;;;;;0.57;0.57;;;;;;;13.53;38.30;99925.41;6183357;23;19996;-92
2023/03/13 09:33:45;;;;;;;1.35;0.52;;;;;;;13.46;38.93;99926.50;6160038;23;20021;-93
2023/03/13 09:36:11;;;;;;;0.13;0.13;;;;;;;13.21;38.47;99907.19;6160360;23;20692;-92
2023/03/13 09:38:37;;;;;;;0.13;0.13;;;;;;;13.35;38.32;99916.97;6160623;23;20024;-93
2023/03/13 09:41:23;;;;;;;0.43;0.43;;;;;;;13.14;37.74;99915.06;6185012;23;20167;-92
2023/03/13 09:44:13;;;;;;;0.75;0.45;;;;;;;13.17;38.49;99919.69;6160312;23;20533;-91
2023/03/13 09:47:02;;;;;;;0.30;0.30;;;;;;;13.35;38.04;99917.75;6160542;23;20032;-93
2023/03/13 09:49:29;;;;;;;0.60;0.60;;;;;;;13.23;37.97;99918.63;6159767;23;20438;-93
2023/03/13 09:52:28;;;;;;;0.22;0.22;;;;;;;13.25;37.96;99907.06;6184460;23;20531;-93
2023/03/13 09:55:02;;;;;;;0.50;0.50;;;;;;;13.61;38.10;99912.75;6135422;23;20606;-93
2023/03/13 09:57:36;;;;;;;0.20;0.20;;;;;;;13.54;37.58;99893.53;6184453;23;20035;-93
2023/03/13 10:00:18;;;;;;;1.20;0.98;;;;;;;13.49;37.96;99894.13;6159811;23;20024;-94
2023/03/13 10:03:02;;;;;;;2.10;1.10;;;;;;;13.74;37.79;99890.31;6134813;23;20095;-92
2023/03/13 10:05:28;;;;;;;1.30;1.20;;;;;;;13.88;37.62;99859.81;6154103;23;20028;-91
2023/03/13 10:08:24;;;;;;;1.02;0.98;;;;;;;14.35;36.22;99867.75;6154775;23;20072;-92
2023/03/13 10:10:58;;;;;;;0.80;0.80;;;;;;;14.38;36.68;99893.94;6137326;23;20025;-92
2023/03/13 10:13:46;;;;;;;0.00;0.00;;;;;;;14.62;36.55;99897.63;6154183;23;20020;-92
2023/03/13 10:16:17;;;;;;;0.80;0.80;;;;;;;14.90;36.90;99881.59;6130591;23;20017;-93
2023/03/13 10:18:53;;;;;;;0.50;0.50;;;;;;;14.69;35.33;99888.91;6133022;23;20021;-92
2023/03/13 10:21:21;;;;;;;2.97;1.00;;;;;;;14.62;35.87;99880.09;6157839;23;20363;-93
2023/03/13 10:23:58;;;;;;;1.25;0.88;;;;;;;14.60;36.91;99874.97;6137081;23;20012;-93
2023/03/13 10:26:29;;;;;;;0.35;0.35;;;;;;;14.86;35.99;99869.81;6148381;23;20005;-91
2023/03/13 10:28:55;;;;;;;0.70;0.70;;;;;;;14.98;35.72;99862.47;6156574;23;20012;-92
2023/03/13 10:31:32;;;;;;;0.10;0.10;;;;;;;14.83;35.64;99846.41;6129481;23;20095;-92
2023/03/13 10:34:11;;;;;;;0.22;0.22;;;;;;;14.95;35.46;99850.22;6154616;23;20439;-92
2023/03/13 10:36:48;;;;;;;0.00;0.00;;;;;;;15.00;36.49;99854.41;6130818;23;20095;-92
2023/03/13 10:39:20;;;;;;;0.15;0.15;;;;;;;15.29;35.36;99848.97;6132260;23;20013;-92
2023/03/13 10:41:47;;;;;;;1.63;1.52;;;;;;;14.99;34.97;99848.03;6107663;23;20034;-91
2023/03/13 10:44:18;;;;;;;0.90;0.50;;;;;;;15.06;35.67;99846.91;6129643;23;20005;-91
2023/03/13 10:46:46;;;;;;;0.60;0.30;;;;;;;15.22;35.50;99843.75;6156291;23;20342;-91
2023/03/13 10:49:22;;;;;;;0.52;0.52;;;;;;;15.29;35.78;99832.97;6154675;23;20033;-91
2023/03/13 10:51:53;;;;;;;0.32;0.32;;;;;;;15.55;35.23;99830.53;6131134;23;20363;-91
2023/03/13 10:54:36;;;;;;;0.10;0.10;;;;;;;15.68;34.90;99797.53;6154577;23;20024;-91
2023/03/13 10:57:20;;;;;;;0.10;0.10;;;;;;;16.18;34.53;99811.69;6155187;23;20451;-92
2023/03/13 10:59:48;;;;;;;0.50;0.50;;;;;;;16.12;33.45;99785.63;6179393;23;20012;-91
2023/03/13 11:02:25;;;;;;;0.60;0.60;;;;;;;16.47;33.98;99806.09;6129657;23;20020;-91
2023/03/13 11:04:54;;;;;;;1.10;0.88;;;;;;;16.28;33.77;99787.97;6226208;23;20017;-92
2023/03/13 11:07:24;;;;;;;0.98;0.80;;;;;;;16.50;34.26;99785.53;6160074;23;20008;-92
2023/03/13 11:10:25;;;;;;;0.00;0.00;;;;;;;17.07;33.63;99779.56;6185206;23;20024;-92
2023/03/13 11:12:53;;;;;;;0.15;0.15;;;;;;;17.08;32.67;99753.09;6124927;23;20112;-92
2023/03/13 11:15:41;;;;;;;0.45;0.45;;;;;;;17.31;32.27;99749.34;6184143;23;20005;-91
2023/03/13 11:18:15;;;;;;;0.38;0.38;;;;;;;16.94;33.31;99753.94;6184214;23;20016;-91
2023/03/13 11:20:43;;;;;;;0.35;0.35;;;;;;;16.51;33.00;99728.28;6184189;23;20066;-93
2023/03/13 11:23:24;;;;;;;0.32;0.28;;;;;;;16.54;33.19;99771.38;6160346;23;20451;-92
2023/03/13 11:26:04;;;;;;;0.30;0.30;;;;;;;16.37;33.44;99765.50;6211857;23;20046;-91
2023/03/13 11:28:53;;;;;;;0.22;0.15;;;;;;;16.33;33.84;99762.09;6211733;23;20093;-93
2023/03/13 11:31:29;;;;;;;0.20;0.20;;;;;;;16.16;34.21;99752.66;6211214;23;20020;-92
2023/03/13 11:34:45;;;;;;;0.85;0.82;;;;;;;16.06;34.79;99743.56;6160071;23;20008;-92
2023/03/13 11:37:19;;;;;;;0.65;0.65;;;;;;;16.20;34.67;99747.63;6166451;23;20044;-92
2023/03/13 11:40:06;;;;;;;0.17;0.17;;;;;;;16.38;34.11;99752.28;6136170;23;20086;-91
2023/03/13 11:43:08;;;;;;;0.08;0.08;;;;;;;16.01;34.37;99740.69;6160262;23;20046;-91
2023/03/13 11:46:04;;;;;;;0.10;0.10;;;;;;;16.19;34.03;99724.47;6114593;23;20036;-92
2023/03/13 11:48:33;;;;;;;0.80;0.65;;;;;;;16.43;33.99;99701.94;6187053;23;20036;-92